Time;durP1;ratioP1;P1;durP2;ratioP2;P2;SDS_P1;SDS_P2;PMS_P1;PMS_P2;Temp;Humidity;BMP_temperature;BMP_pressure;BME280_temperature;BME280_humidity;BME280_pressure;Samples;Min_cycle;Max_cycle;Signal;HPM_P1;HPM_P2
2021/10/08 00:00:50;;;;;;;4.67;4.23;;;12.60;99.90;;;;;;6274763;28;20485;-65
2021/10/08 00:03:53;;;;;;;8.10;4.10;;;12.60;99.90;;;;;;6274915;28;20969;-64
2021/10/08 00:06:56;;;;;;;4.93;3.43;;;12.70;99.90;;;;;;6275056;28;20903;-64
2021/10/08 00:10:02;;;;;;;5.67;4.50;;;12.70;99.90;;;;;;6274692;28;20478;-64
2021/10/08 00:13:05;;;;;;;4.93;3.73;;;12.70;99.90;;;;;;6275497;28;20480;-64
2021/10/08 00:16:08;;;;;;;5.23;3.87;;;12.70;99.90;;;;;;6275087;28;20478;-64
2021/10/08 00:19:11;;;;;;;4.30;3.90;;;12.60;99.90;;;;;;6274424;28;20469;-64
2021/10/08 00:22:14;;;;;;;5.20;4.70;;;12.60;99.90;;;;;;6273902;28;20969;-65
2021/10/08 00:25:19;;;;;;;4.93;3.80;;;12.70;99.90;;;;;;6275138;28;20445;-64
2021/10/08 00:28:22;;;;;;;4.97;4.47;;;12.70;99.90;;;;;;6275057;28;20442;-64
2021/10/08 00:31:28;;;;;;;8.13;5.67;;;12.70;99.90;;;;;;6274283;28;20478;-64
2021/10/08 00:34:31;;;;;;;4.87;4.37;;;12.60;99.90;;;;;;6265409;28;20815;-64
2021/10/08 00:37:34;;;;;;;6.83;3.93;;;12.60;99.90;;;;;;6274760;28;20476;-65
2021/10/08 00:40:41;;;;;;;6.10;4.10;;;12.60;99.90;;;;;;6274129;28;20946;-65
2021/10/08 00:43:44;;;;;;;5.30;4.70;;;12.70;99.90;;;;;;6274300;28;20976;-65
2021/10/08 00:46:50;;;;;;;5.60;4.93;;;12.60;99.90;;;;;;6274548;28;20812;-64
2021/10/08 00:49:53;;;;;;;6.57;5.27;;;12.60;99.90;;;;;;6274448;28;20804;-64
2021/10/08 00:52:56;;;;;;;5.03;4.63;;;12.70;99.90;;;;;;6274154;28;20859;-64
2021/10/08 00:56:02;;;;;;;6.20;5.60;;;12.70;99.90;;;;;;6276781;28;20469;-64
2021/10/08 00:59:07;;;;;;;6.10;5.50;;;12.70;99.90;;;;;;6278987;28;20473;-64
2021/10/08 01:02:10;;;;;;;6.63;5.60;;;12.70;99.90;;;;;;6278967;28;20477;-64
2021/10/08 01:05:14;;;;;;;7.60;6.13;;;12.70;99.90;;;;;;6279123;28;20469;-64
2021/10/08 01:08:17;;;;;;;8.30;6.70;;;12.80;99.90;;;;;;6278575;28;20469;-64
2021/10/08 01:11:21;;;;;;;7.27;6.27;;;12.80;99.90;;;;;;6278255;28;20466;-64
2021/10/08 01:14:25;;;;;;;6.70;5.57;;;12.80;99.90;;;;;;6279023;28;20493;-64
2021/10/08 01:17:28;;;;;;;6.40;5.80;;;12.80;99.90;;;;;;6278401;28;20474;-64
2021/10/08 01:20:33;;;;;;;6.57;5.97;;;12.80;99.90;;;;;;6277915;28;20481;-64
2021/10/08 01:23:36;;;;;;;7.03;6.30;;;12.80;99.90;;;;;;6278401;28;20777;-62
2021/10/08 01:26:40;;;;;;;7.30;6.60;;;12.80;99.90;;;;;;6277889;28;20488;-63
2021/10/08 01:29:51;;;;;;;12.10;8.70;;;12.90;99.90;;;;;;6278240;28;20473;-63
2021/10/08 01:32:54;;;;;;;8.33;7.63;;;12.90;99.90;;;;;;6278443;28;20486;-63
2021/10/08 01:35:58;;;;;;;8.47;7.33;;;12.90;99.90;;;;;;6277951;28;20466;-63
2021/10/08 01:39:02;;;;;;;8.37;7.67;;;12.90;99.90;;;;;;6269509;28;20470;-63
2021/10/08 01:42:06;;;;;;;9.20;7.53;;;12.90;99.90;;;;;;6277759;28;20478;-63
2021/10/08 01:45:10;;;;;;;7.20;6.50;;;12.90;99.90;;;;;;6277888;28;20543;-63
2021/10/08 01:48:13;;;;;;;6.30;5.73;;;12.90;99.90;;;;;;6277839;28;20473;-63
2021/10/08 01:51:18;;;;;;;6.40;5.80;;;12.90;99.90;;;;;;6277554;28;20470;-63
2021/10/08 01:54:21;;;;;;;5.57;5.07;;;12.90;99.90;;;;;;6277681;28;20489;-63
2021/10/08 01:57:25;;;;;;;6.23;5.73;;;12.90;99.90;;;;;;6277488;28;20801;-63
2021/10/08 02:00:29;;;;;;;5.10;4.67;;;12.90;99.90;;;;;;6279041;28;20478;-63
2021/10/08 02:03:32;;;;;;;5.40;4.90;;;12.80;99.90;;;;;;6278591;28;20462;-63
2021/10/08 02:06:37;;;;;;;4.87;4.47;;;12.70;99.90;;;;;;6277554;28;20466;-62
2021/10/08 02:09:40;;;;;;;4.83;4.43;;;12.70;99.90;;;;;;6277635;28;20489;-63
2021/10/08 02:12:43;;;;;;;4.60;4.20;;;12.70;99.90;;;;;;6277320;28;20477;-63
2021/10/08 02:15:46;;;;;;;5.20;4.70;;;12.70;99.90;;;;;;6277357;28;20899;-63
2021/10/08 02:18:51;;;;;;;5.10;4.60;;;12.70;99.90;;;;;;6277394;28;20476;-62
2021/10/08 02:21:55;;;;;;;7.07;4.77;;;12.70;99.90;;;;;;6277303;28;20993;-62
2021/10/08 02:24:58;;;;;;;5.50;4.93;;;12.80;99.90;;;;;;6276874;28;20481;-62
2021/10/08 02:28:01;;;;;;;5.97;5.40;;;12.70;99.90;;;;;;6276872;28;20949;-62
2021/10/08 02:31:06;;;;;;;6.63;5.03;;;12.70;99.90;;;;;;6277115;28;20486;-63
2021/10/08 02:34:09;;;;;;;5.27;4.77;;;12.70;99.90;;;;;;6276863;28;20515;-62
2021/10/08 02:37:13;;;;;;;5.50;4.87;;;12.70;99.90;;;;;;6276823;28;20977;-62
2021/10/08 02:40:17;;;;;;;7.13;5.53;;;12.70;99.90;;;;;;6271761;28;20465;-63
2021/10/08 02:43:20;;;;;;;7.03;6.07;;;12.80;99.90;;;;;;6276912;28;20446;-64
2021/10/08 02:46:23;;;;;;;6.83;6.10;;;12.80;99.90;;;;;;6276990;28;20449;-63
2021/10/08 02:49:26;;;;;;;6.43;5.53;;;12.80;99.90;;;;;;6276542;28;20529;-63
2021/10/08 02:52:30;;;;;;;5.50;5.10;;;12.90;99.90;;;;;;6276316;28;20462;-63
2021/10/08 02:55:39;;;;;;;5.17;4.77;;;12.90;99.90;;;;;;6276722;28;20925;-63
2021/10/08 02:58:43;;;;;;;5.30;4.80;;;12.90;99.90;;;;;;6276745;28;20520;-63
2021/10/08 03:01:46;;;;;;;6.50;5.43;;;12.90;99.90;;;;;;6276136;28;20759;-63
2021/10/08 03:04:49;;;;;;;5.03;4.53;;;12.90;99.90;;;;;;6276822;28;20555;-63
2021/10/08 03:07:53;;;;;;;6.00;5.53;;;12.90;99.90;;;;;;6276442;28;20465;-63
2021/10/08 03:10:56;;;;;;;10.03;5.97;;;13.00;99.90;;;;;;6276081;28;20528;-63
2021/10/08 03:14:01;;;;;;;6.00;5.40;;;13.00;99.90;;;;;;6276298;28;20474;-63
2021/10/08 03:17:05;;;;;;;4.70;4.33;;;13.00;99.90;;;;;;6276099;28;20501;-63
2021/10/08 03:20:09;;;;;;;5.43;4.50;;;13.00;99.90;;;;;;6275532;28;20465;-63
2021/10/08 03:23:14;;;;;;;5.13;4.63;;;13.00;99.90;;;;;;6275884;28;20497;-63
2021/10/08 03:26:17;;;;;;;4.83;4.43;;;12.90;99.90;;;;;;6275946;28;20477;-63
2021/10/08 03:29:20;;;;;;;4.83;4.50;;;12.90;99.90;;;;;;6275528;28;20470;-63
2021/10/08 03:32:23;;;;;;;6.33;5.43;;;13.00;99.90;;;;;;6275581;28;20470;-63
2021/10/08 03:35:26;;;;;;;5.70;4.97;;;12.90;99.90;;;;;;6276187;28;20466;-62
2021/10/08 03:38:32;;;;;;;5.00;4.60;;;12.90;99.90;;;;;;6275473;28;21023;-62
2021/10/08 03:41:38;;;;;;;5.97;5.27;;;12.90;99.90;;;;;;6275087;28;20782;-63
2021/10/08 03:44:43;;;;;;;6.27;5.67;;;12.90;99.90;;;;;;6275853;28;20536;-62
2021/10/08 03:47:58;;;;;;;5.30;4.80;;;12.90;99.90;;;;;;6266889;28;20473;-63
2021/10/08 03:51:03;;;;;;;5.77;4.67;;;13.00;99.90;;;;;;6275380;28;20478;-63
2021/10/08 03:54:07;;;;;;;6.40;4.73;;;12.90;99.90;;;;;;6275464;28;20478;-63
2021/10/08 03:57:10;;;;;;;6.87;5.20;;;12.90;99.90;;;;;;6274968;28;20466;-63
2021/10/08 04:00:14;;;;;;;5.33;4.73;;;12.80;99.90;;;;;;6274809;28;20465;-63
2021/10/08 04:03:17;;;;;;;5.33;4.30;;;12.90;99.90;;;;;;6274913;28;20474;-62
2021/10/08 04:06:21;;;;;;;4.67;4.27;;;12.90;99.90;;;;;;6275017;28;20482;-63
2021/10/08 04:09:25;;;;;;;5.67;5.07;;;12.90;99.90;;;;;;6274935;28;20480;-63
2021/10/08 04:12:28;;;;;;;4.90;4.50;;;12.90;99.90;;;;;;6274710;28;20524;-63
2021/10/08 04:15:31;;;;;;;5.10;4.53;;;12.90;99.90;;;;;;6274577;28;20470;-62
2021/10/08 04:18:34;;;;;;;5.73;4.20;;;12.90;99.90;;;;;;6274888;28;20477;-62
2021/10/08 04:21:38;;;;;;;6.70;4.90;;;12.90;99.90;;;;;;6274684;28;20485;-63
2021/10/08 04:24:42;;;;;;;5.60;5.20;;;12.90;99.90;;;;;;6274857;28;20473;-63
2021/10/08 04:27:45;;;;;;;4.83;4.43;;;12.90;99.90;;;;;;6274776;28;20477;-64
2021/10/08 04:30:48;;;;;;;4.93;4.40;;;12.90;99.90;;;;;;6276494;28;20482;-63
2021/10/08 04:33:52;;;;;;;5.20;4.70;;;12.90;99.90;;;;;;6279718;28;20998;-63
2021/10/08 04:36:55;;;;;;;4.67;4.13;;;12.90;99.90;;;;;;6279412;28;20481;-62
2021/10/08 04:39:59;;;;;;;6.20;4.87;;;12.90;99.90;;;;;;6279218;28;20476;-62
2021/10/08 04:43:03;;;;;;;5.53;4.10;;;12.90;99.90;;;;;;6279227;28;20473;-63
2021/10/08 04:46:06;;;;;;;5.10;4.60;;;12.90;99.90;;;;;;6279826;28;20473;-63
2021/10/08 04:49:09;;;;;;;5.00;4.60;;;12.90;99.90;;;;;;6279451;28;20466;-63
2021/10/08 04:52:12;;;;;;;5.83;5.33;;;12.90;99.90;;;;;;6274871;28;20496;-63
2021/10/08 04:55:17;;;;;;;4.83;4.30;;;12.90;99.90;;;;;;6278476;28;20465;-63
2021/10/08 04:58:20;;;;;;;5.77;4.73;;;13.00;99.90;;;;;;6279472;28;20459;-63
2021/10/08 05:01:23;;;;;;;4.77;4.30;;;13.00;99.90;;;;;;6278671;28;20554;-63
2021/10/08 05:04:27;;;;;;;5.10;4.67;;;13.00;99.90;;;;;;6278639;28;20924;-63
2021/10/08 05:07:30;;;;;;;5.40;4.70;;;13.00;99.90;;;;;;6278776;28;20450;-63
2021/10/08 05:10:34;;;;;;;5.73;5.23;;;13.00;99.90;;;;;;6278387;28;20468;-63
2021/10/08 05:13:37;;;;;;;4.90;4.30;;;13.00;99.90;;;;;;6278537;28;20474;-63
2021/10/08 05:16:41;;;;;;;4.80;4.33;;;13.00;99.90;;;;;;6278035;28;20474;-63
2021/10/08 05:19:44;;;;;;;4.67;4.27;;;13.00;99.90;;;;;;6278776;28;20473;-61
2021/10/08 05:22:48;;;;;;;4.63;4.23;;;13.00;99.90;;;;;;6280029;28;20501;-61
2021/10/08 05:25:53;;;;;;;6.70;5.83;;;13.00;99.90;;;;;;6279080;28;20977;-62
2021/10/08 05:28:56;;;;;;;5.80;5.20;;;13.10;99.90;;;;;;6277113;28;20470;-63
2021/10/08 05:31:59;;;;;;;7.20;5.10;;;13.10;99.90;;;;;;6277012;28;20492;-63
2021/10/08 05:35:02;;;;;;;5.30;4.80;;;13.10;99.90;;;;;;6276563;28;21005;-63
2021/10/08 05:38:06;;;;;;;6.23;5.63;;;13.10;99.90;;;;;;6276675;28;20810;-63
2021/10/08 05:41:11;;;;;;;5.73;4.97;;;13.10;99.90;;;;;;6276148;28;20465;-64
2021/10/08 05:44:14;;;;;;;5.23;4.73;;;13.10;99.90;;;;;;6277704;28;20807;-63
2021/10/08 05:47:17;;;;;;;7.07;5.43;;;13.10;99.90;;;;;;6277851;28;20477;-63
2021/10/08 05:50:20;;;;;;;5.07;4.43;;;13.10;99.90;;;;;;6277494;28;21023;-63
2021/10/08 05:53:23;;;;;;;5.50;5.00;;;13.20;99.90;;;;;;6278160;28;20478;-63
2021/10/08 05:56:27;;;;;;;5.43;4.70;;;13.20;99.90;;;;;;6268773;28;20482;-63
2021/10/08 05:59:31;;;;;;;8.87;5.07;;;13.30;99.90;;;;;;6277572;28;20779;-63
2021/10/08 06:02:34;;;;;;;9.40;5.60;;;13.30;99.90;;;;;;6277342;28;20470;-62
2021/10/08 06:05:38;;;;;;;5.93;5.33;;;13.30;99.90;;;;;;6277569;28;20481;-62
2021/10/08 06:08:41;;;;;;;8.87;6.47;;;13.30;99.90;;;;;;6277792;28;20803;-62
2021/10/08 06:11:46;;;;;;;6.97;5.53;;;13.30;99.90;;;;;;6277364;28;20478;-62
2021/10/08 06:14:49;;;;;;;7.60;6.00;;;13.30;99.90;;;;;;6277193;28;20482;-64
2021/10/08 06:17:52;;;;;;;5.13;4.63;;;13.30;99.90;;;;;;6277387;28;20481;-63
2021/10/08 06:20:55;;;;;;;9.80;6.17;;;13.20;99.90;;;;;;6277560;28;20489;-62
2021/10/08 06:23:58;;;;;;;7.77;5.30;;;13.30;99.90;;;;;;6277693;28;20477;-63
2021/10/08 06:27:03;;;;;;;5.77;5.20;;;13.20;99.90;;;;;;6277186;28;20807;-62
2021/10/08 06:30:08;;;;;;;6.43;5.50;;;13.20;99.90;;;;;;6262924;28;20472;-62
2021/10/08 06:33:11;;;;;;;6.37;5.73;;;13.20;99.90;;;;;;6263325;28;20473;-62
2021/10/08 06:36:14;;;;;;;5.83;5.07;;;13.20;99.90;;;;;;6263807;28;20474;-61
2021/10/08 06:39:17;;;;;;;7.37;5.27;;;13.30;99.90;;;;;;6265957;28;20474;-61
2021/10/08 06:42:24;;;;;;;6.20;5.70;;;13.30;99.90;;;;;;6259110;28;20475;-63
2021/10/08 06:45:28;;;;;;;5.90;5.30;;;13.30;99.90;;;;;;6252083;28;20482;-62
2021/10/08 06:48:31;;;;;;;7.80;6.50;;;13.30;99.90;;;;;;6251594;28;20544;-62
2021/10/08 06:51:34;;;;;;;7.97;7.27;;;13.30;99.90;;;;;;6251547;28;20478;-63
2021/10/08 06:54:37;;;;;;;8.57;7.73;;;13.30;99.90;;;;;;6250976;28;20470;-63
2021/10/08 06:57:42;;;;;;;11.33;10.20;;;13.30;99.90;;;;;;6252023;28;20486;-64
2021/10/08 07:00:45;;;;;;;10.30;9.27;;;13.30;99.90;;;;;;6245153;28;20490;-64
2021/10/08 07:03:49;;;;;;;11.57;10.47;;;13.40;99.90;;;;;;6264918;28;20502;-62
2021/10/08 07:06:52;;;;;;;14.40;11.23;;;13.40;99.90;;;;;;6262131;28;20466;-63
2021/10/08 07:09:55;;;;;;;12.10;10.93;;;13.40;99.90;;;;;;6263626;28;20482;-64
2021/10/08 07:13:00;;;;;;;11.97;10.77;;;13.50;99.90;;;;;;6261623;28;20482;-66
2021/10/08 07:16:03;;;;;;;13.83;10.70;;;13.40;99.90;;;;;;6263971;28;20462;-65
2021/10/08 07:19:17;;;;;;;12.57;11.27;;;13.50;99.90;;;;;;6263335;28;20443;-65
2021/10/08 07:22:20;;;;;;;14.40;11.40;;;13.60;99.90;;;;;;6264115;28;20451;-65
2021/10/08 07:25:25;;;;;;;12.83;10.20;;;13.60;99.90;;;;;;6261670;28;20440;-65
2021/10/08 07:28:29;;;;;;;14.37;10.63;;;13.70;99.90;;;;;;6264202;28;20430;-67
2021/10/08 07:31:33;;;;;;;14.53;11.80;;;13.70;99.90;;;;;;6264791;28;20450;-65
2021/10/08 07:34:37;;;;;;;17.43;11.53;;;13.70;99.90;;;;;;6260808;28;21420;-65
2021/10/08 07:37:41;;;;;;;11.27;10.10;;;13.70;99.90;;;;;;6259815;28;20467;-65
2021/10/08 07:40:44;;;;;;;9.57;8.57;;;13.70;99.90;;;;;;6261513;28;20539;-65
2021/10/08 07:43:53;;;;;;;14.73;12.90;;;13.70;99.90;;;;;;6260931;28;20474;-65
2021/10/08 07:46:56;;;;;;;12.67;11.47;;;13.80;99.90;;;;;;6262334;28;20947;-65
2021/10/08 07:50:00;;;;;;;12.40;11.03;;;13.80;99.90;;;;;;6261834;28;21016;-65
2021/10/08 07:53:03;;;;;;;11.90;10.67;;;13.80;99.90;;;;;;6259445;28;20467;-65
2021/10/08 07:56:06;;;;;;;13.47;12.07;;;13.80;99.90;;;;;;6250468;28;20506;-65
2021/10/08 07:59:11;;;;;;;32.47;22.67;;;13.80;99.90;;;;;;6250308;28;20790;-65
2021/10/08 08:02:14;;;;;;;24.37;17.83;;;13.70;99.90;;;;;;6245563;28;20467;-65
2021/10/08 08:05:17;;;;;;;15.30;13.80;;;13.70;99.90;;;;;;6249767;28;20991;-65
2021/10/08 08:08:21;;;;;;;22.63;18.17;;;13.80;99.90;;;;;;6251157;28;20493;-67
2021/10/08 08:11:24;;;;;;;12.70;11.40;;;13.70;99.90;;;;;;6266912;28;20466;-68
2021/10/08 08:14:28;;;;;;;13.93;12.53;;;13.70;99.90;;;;;;6256335;28;20478;-70
2021/10/08 08:17:31;;;;;;;20.67;15.07;;;13.60;99.90;;;;;;6251159;28;20479;-70
2021/10/08 08:20:35;;;;;;;15.50;13.90;;;13.60;99.90;;;;;;6263962;28;20489;-67
2021/10/08 08:23:38;;;;;;;14.63;12.03;;;13.60;99.90;;;;;;6263164;28;20986;-67
2021/10/08 08:26:41;;;;;;;14.90;13.47;;;13.60;99.90;;;;;;6263280;28;20465;-68
2021/10/08 08:29:46;;;;;;;14.63;13.13;;;13.60;99.90;;;;;;6275104;28;20485;-69
2021/10/08 08:32:49;;;;;;;14.53;12.63;;;13.60;99.90;;;;;;6276349;28;20478;-69
2021/10/08 08:35:53;;;;;;;13.87;12.57;;;13.60;99.90;;;;;;6278356;28;20466;-71
2021/10/08 08:38:59;;;;;;;15.43;13.80;;;13.60;99.90;;;;;;6276141;28;20470;-69
2021/10/08 08:42:02;;;;;;;13.87;12.47;;;13.70;99.90;;;;;;6265391;28;20479;-67
2021/10/08 08:45:08;;;;;;;13.80;12.40;;;13.70;99.90;;;;;;6264638;28;20462;-67
2021/10/08 08:48:12;;;;;;;15.60;14.00;;;13.70;99.90;;;;;;6262073;28;20520;-67
2021/10/08 08:51:16;;;;;;;15.20;12.77;;;13.70;99.90;;;;;;6261352;28;20507;-67
2021/10/08 08:54:20;;;;;;;16.80;13.80;;;13.70;99.90;;;;;;6261112;28;20466;-67
2021/10/08 08:57:23;;;;;;;13.60;12.30;;;13.70;99.90;;;;;;6262055;28;20470;-68
2021/10/08 09:00:28;;;;;;;17.30;13.00;;;13.70;99.90;;;;;;6259687;28;20489;-67
2021/10/08 09:03:31;;;;;;;16.33;12.80;;;13.80;99.90;;;;;;6258476;28;20467;-68
2021/10/08 09:06:37;;;;;;;15.00;13.50;;;13.80;99.90;;;;;;6257771;28;20462;-68
2021/10/08 09:09:40;;;;;;;14.73;13.20;;;13.80;99.90;;;;;;6263117;28;20934;-68
2021/10/08 09:12:45;;;;;;;14.77;13.03;;;13.80;99.90;;;;;;6283762;28;20976;-68
2021/10/08 09:15:52;;;;;;;17.13;13.67;;;13.90;99.90;;;;;;6275665;28;20857;-67
2021/10/08 09:18:55;;;;;;;15.47;12.30;;;13.90;99.90;;;;;;6277885;28;20481;-66
2021/10/08 09:21:59;;;;;;;15.27;13.30;;;13.90;99.90;;;;;;6269783;28;20469;-66
2021/10/08 09:25:12;;;;;;;13.97;12.13;;;13.90;99.90;;;;;;6266744;28;20476;-66
2021/10/08 09:28:15;;;;;;;15.73;12.33;;;13.80;99.90;;;;;;6267941;28;20506;-67
2021/10/08 09:31:21;;;;;;;14.07;12.57;;;13.80;99.90;;;;;;6266317;28;20454;-66
2021/10/08 09:34:25;;;;;;;14.87;12.60;;;13.90;99.90;;;;;;6263139;28;20949;-66
2021/10/08 09:37:29;;;;;;;14.20;12.40;;;13.90;99.90;;;;;;6264187;28;20443;-66
2021/10/08 09:40:35;;;;;;;15.43;13.50;;;13.90;99.90;;;;;;6265475;28;20527;-66
2021/10/08 09:43:38;;;;;;;14.40;11.80;;;13.90;99.90;;;;;;6255077;28;20455;-66
2021/10/08 09:46:43;;;;;;;13.20;11.90;;;13.90;99.90;;;;;;6262856;28;21086;-66
2021/10/08 09:49:48;;;;;;;14.97;11.53;;;13.90;99.90;;;;;;6277856;28;20469;-66
2021/10/08 09:52:52;;;;;;;13.27;11.97;;;13.90;99.90;;;;;;6278059;28;20482;-66
2021/10/08 09:55:56;;;;;;;13.90;12.47;;;13.90;99.90;;;;;;6278321;28;20474;-66
2021/10/08 09:58:59;;;;;;;19.77;11.70;;;13.90;99.90;;;;;;6277893;28;20523;-66
2021/10/08 10:02:06;;;;;;;13.00;11.67;;;13.90;99.90;;;;;;6277363;28;20470;-66
2021/10/08 10:05:12;;;;;;;13.10;11.70;;;13.80;99.90;;;;;;6277327;28;20474;-66
2021/10/08 10:08:15;;;;;;;14.47;12.93;;;13.70;99.90;;;;;;6277492;28;20478;-66
2021/10/08 10:11:20;;;;;;;14.00;12.53;;;13.80;99.90;;;;;;6277271;28;20795;-66
2021/10/08 10:14:24;;;;;;;13.47;12.03;;;13.70;99.90;;;;;;6277043;28;20588;-66
2021/10/08 10:17:28;;;;;;;14.47;12.97;;;13.80;99.90;;;;;;6265565;28;20467;-66
2021/10/08 10:20:35;;;;;;;16.27;13.47;;;13.70;99.90;;;;;;6267465;28;20825;-66
2021/10/08 10:23:39;;;;;;;14.90;13.07;;;13.70;99.90;;;;;;6265196;28;20478;-66
2021/10/08 10:26:42;;;;;;;16.30;13.37;;;13.70;99.90;;;;;;6271068;28;20466;-66
2021/10/08 10:29:47;;;;;;;16.00;12.90;;;13.70;99.90;;;;;;6253540;28;20524;-66
2021/10/08 10:32:52;;;;;;;16.47;11.20;;;13.80;99.90;;;;;;6252679;28;20482;-66
2021/10/08 10:35:59;;;;;;;13.67;10.80;;;13.90;99.90;;;;;;6257236;28;20473;-67
2021/10/08 10:39:17;;;;;;;13.83;11.93;;;14.00;99.90;;;;;;6264060;28;20479;-67
2021/10/08 10:42:20;;;;;;;13.40;11.53;;;14.00;99.90;;;;;;6271073;28;20477;-67
2021/10/08 10:45:26;;;;;;;13.30;10.93;;;14.00;99.90;;;;;;6253849;28;20482;-68
2021/10/08 10:48:32;;;;;;;14.67;10.90;;;14.00;99.90;;;;;;6251832;28;20470;-67
2021/10/08 10:52:15;;;;;;;14.83;12.07;;;14.10;99.90;;;;;;6255984;28;20831;-67
2021/10/08 10:55:20;;;;;;;16.43;11.30;;;14.20;99.90;;;;;;6264025;28;20474;-67
2021/10/08 10:58:23;;;;;;;14.13;12.60;;;14.20;99.90;;;;;;6276020;28;20438;-67
2021/10/08 11:04:46;;;;;;;14.20;12.80;;;14.20;99.90;;;;;;6275189;28;20469;-68
2021/10/08 11:08:07;;;;;;;16.37;13.03;;;14.10;99.90;;;;;;6275563;28;20563;-68
2021/10/08 11:11:20;;;;;;;16.90;13.50;;;14.20;99.90;;;;;;6276175;28;20470;-67
2021/10/08 11:14:23;;;;;;;14.50;12.80;;;14.20;99.90;;;;;;6264642;28;20478;-67
2021/10/08 11:17:45;;;;;;;12.97;11.47;;;14.30;99.90;;;;;;6274379;28;20484;-65
2021/10/08 11:20:50;;;;;;;14.37;13.00;;;14.30;99.90;;;;;;6274373;28;20474;-65
2021/10/08 11:23:53;;;;;;;14.20;12.67;;;14.40;99.90;;;;;;6275463;28;20484;-68
2021/10/08 11:27:00;;;;;;;17.97;12.63;;;14.50;99.90;;;;;;6275329;28;20470;-65
2021/10/08 11:30:04;;;;;;;14.50;12.60;;;14.50;99.90;;;;;;6275255;28;20496;-68
2021/10/08 11:33:09;;;;;;;14.77;13.00;;;14.50;99.90;;;;;;6275120;28;20470;-63
2021/10/08 11:36:26;;;;;;;15.73;14.13;;;14.50;99.90;;;;;;6273030;28;20478;-66
2021/10/08 11:39:30;;;;;;;16.57;14.90;;;14.50;99.90;;;;;;6274617;28;20470;-65
2021/10/08 11:42:38;;;;;;;18.00;15.40;;;14.50;99.90;;;;;;6271855;28;20478;-65
2021/10/08 11:45:46;;;;;;;16.13;13.50;;;14.40;99.90;;;;;;6275052;28;20466;-63
2021/10/08 11:48:53;;;;;;;16.00;14.50;;;14.30;99.90;;;;;;6275241;28;20470;-64
2021/10/08 11:51:58;;;;;;;19.60;15.10;;;14.40;99.90;;;;;;6275741;28;20486;-68
2021/10/08 11:55:11;;;;;;;18.00;15.27;;;14.50;99.90;;;;;;6274349;28;20777;-65
2021/10/08 11:58:16;;;;;;;15.70;13.53;;;14.60;99.90;;;;;;6274812;28;20496;-61
2021/10/08 12:01:23;;;;;;;17.90;14.50;;;14.70;99.90;;;;;;6274460;28;20470;-63
2021/10/08 12:04:26;;;;;;;15.93;14.20;;;14.70;99.90;;;;;;6273739;28;20450;-67
2021/10/08 12:07:35;;;;;;;16.10;14.27;;;14.80;99.90;;;;;;6274718;28;20450;-63
2021/10/08 12:10:38;;;;;;;17.10;15.43;;;14.70;99.90;;;;;;6274469;28;20473;-62
2021/10/08 12:13:45;;;;;;;15.57;13.90;;;14.70;99.90;;;;;;6274072;28;20458;-62
2021/10/08 12:16:48;;;;;;;17.33;15.37;;;14.60;99.90;;;;;;6265008;28;20466;-62
2021/10/08 12:19:51;;;;;;;15.23;13.80;;;14.40;99.90;;;;;;6274744;28;20989;-65
2021/10/08 12:23:19;;;;;;;17.07;14.60;;;14.40;99.90;;;;;;6273591;28;20481;-65
2021/10/08 12:26:23;;;;;;;16.07;14.50;;;14.40;99.90;;;;;;6274651;28;20477;-66
2021/10/08 12:29:26;;;;;;;16.23;14.53;;;14.40;99.90;;;;;;6274492;28;20510;-65
2021/10/08 12:32:29;;;;;;;18.13;15.30;;;14.40;99.90;;;;;;6274511;28;20474;-65
2021/10/08 12:35:32;;;;;;;17.43;15.67;;;14.50;99.90;;;;;;6275730;28;20470;-67
2021/10/08 12:38:53;;;;;;;18.07;15.97;;;14.50;99.90;;;;;;6274179;28;20853;-63
2021/10/08 12:41:58;;;;;;;20.83;14.53;;;14.60;99.90;;;;;;6274382;28;20462;-68
2021/10/08 12:45:01;;;;;;;19.83;14.77;;;14.80;99.90;;;;;;6274026;28;20465;-68
2021/10/08 12:48:05;;;;;;;16.27;14.70;;;15.00;99.90;;;;;;6272153;28;20473;-68
2021/10/08 12:51:09;;;;;;;15.60;13.47;;;15.10;99.90;;;;;;6275408;28;20470;-65
2021/10/08 12:54:15;;;;;;;18.10;15.47;;;15.30;99.90;;;;;;6279332;28;20516;-63
2021/10/08 12:57:20;;;;;;;16.20;13.63;;;15.40;99.90;;;;;;6279296;28;20788;-62
2021/10/08 13:00:32;;;;;;;17.90;14.60;;;15.40;99.90;;;;;;6278806;28;20470;-62
2021/10/08 13:03:37;;;;;;;15.90;14.30;;;15.20;99.90;;;;;;6279408;28;20481;-68
2021/10/08 13:06:40;;;;;;;16.30;14.73;;;15.10;99.90;;;;;;6279559;28;20787;-66
2021/10/08 13:10:08;;;;;;;15.83;13.00;;;15.10;99.90;;;;;;6278934;28;20469;-66
2021/10/08 13:13:22;;;;;;;15.20;13.67;;;15.30;99.90;;;;;;6279030;28;20469;-66
2021/10/08 13:16:26;;;;;;;18.47;13.43;;;15.40;99.90;;;;;;6278902;28;20505;-69
2021/10/08 13:19:34;;;;;;;15.33;13.60;;;15.50;99.90;;;;;;6274013;28;20450;-63
2021/10/08 13:22:37;;;;;;;17.13;15.37;;;15.60;99.90;;;;;;6278676;28;20470;-66
2021/10/08 13:25:44;;;;;;;14.50;13.07;;;15.60;99.90;;;;;;6279036;28;20454;-62
2021/10/08 13:28:47;;;;;;;16.00;13.23;;;15.50;99.90;;;;;;6278895;28;20462;-62
2021/10/08 13:31:51;;;;;;;17.73;14.20;;;15.60;99.90;;;;;;6278830;28;20492;-62
2021/10/08 13:34:54;;;;;;;16.10;14.47;;;15.70;99.90;;;;;;6278303;28;20466;-66
2021/10/08 13:37:57;;;;;;;16.03;14.40;;;15.70;99.90;;;;;;6278247;28;20532;-63
2021/10/08 13:41:03;;;;;;;15.63;14.03;;;15.80;99.90;;;;;;6277910;28;20465;-63
2021/10/08 13:44:06;;;;;;;18.43;14.23;;;15.70;99.90;;;;;;6277825;28;21280;-64
2021/10/08 13:47:10;;;;;;;15.40;14.00;;;15.70;99.90;;;;;;6278227;28;20469;-68
2021/10/08 13:50:13;;;;;;;17.83;15.93;;;15.70;99.90;;;;;;6271567;28;20478;-63
2021/10/08 13:53:16;;;;;;;16.40;14.80;;;15.70;99.90;;;;;;6252761;28;20478;-63
2021/10/08 13:56:21;;;;;;;16.77;15.07;;;15.80;99.90;;;;;;6252877;28;20478;-64
2021/10/08 13:59:24;;;;;;;16.33;14.60;;;15.80;99.90;;;;;;6252773;28;20479;-63
2021/10/08 14:02:31;;;;;;;15.73;13.53;;;15.90;99.90;;;;;;6251956;28;20479;-64
2021/10/08 14:05:41;;;;;;;15.10;13.70;;;16.00;99.90;;;;;;6252779;28;20474;-64
2021/10/08 14:08:48;;;;;;;14.90;13.17;;;16.10;99.90;;;;;;6266250;28;20470;-64
2021/10/08 14:11:52;;;;;;;14.97;13.37;;;16.00;99.60;;;;;;6277289;28;20528;-64
2021/10/08 14:14:56;;;;;;;11.57;10.47;;;16.10;99.80;;;;;;6277306;28;20492;-63
2021/10/08 14:17:59;;;;;;;10.40;9.40;;;15.90;98.00;;;;;;6275923;28;20493;-65
2021/10/08 14:21:03;;;;;;;14.87;11.67;;;15.80;97.80;;;;;;6278796;28;20482;-68
2021/10/08 14:24:07;;;;;;;11.03;9.23;;;15.70;99.40;;;;;;6273585;28;20481;-69
2021/10/08 14:27:11;;;;;;;13.10;9.63;;;15.70;98.90;;;;;;6277906;28;20489;-67
2021/10/08 14:30:16;;;;;;;11.20;9.87;;;15.70;98.00;;;;;;6277128;28;20557;-69
2021/10/08 14:33:19;;;;;;;9.03;8.13;;;15.70;98.00;;;;;;6277064;28;20942;-69
2021/10/08 14:36:26;;;;;;;13.90;8.43;;;15.60;97.80;;;;;;6268419;28;21021;-68
2021/10/08 14:39:30;;;;;;;9.50;8.50;;;15.70;97.30;;;;;;6277294;28;20470;-69
2021/10/08 14:42:40;;;;;;;9.90;8.87;;;15.60;97.30;;;;;;6276718;28;20958;-66
2021/10/08 14:45:44;;;;;;;9.47;8.57;;;15.70;97.20;;;;;;6276858;28;20474;-65
2021/10/08 14:48:48;;;;;;;9.60;8.30;;;15.70;96.60;;;;;;6276458;28;20473;-65
2021/10/08 14:51:53;;;;;;;15.30;8.70;;;15.70;96.50;;;;;;6276253;28;20596;-65
2021/10/08 14:55:09;;;;;;;9.13;7.80;;;15.70;96.20;;;;;;6276372;28;20493;-65
2021/10/08 14:58:13;;;;;;;9.30;8.27;;;15.80;96.00;;;;;;6275985;28;20481;-65
2021/10/08 15:01:20;;;;;;;14.90;8.53;;;16.00;96.10;;;;;;6275928;28;20474;-65
2021/10/08 15:04:23;;;;;;;9.03;8.13;;;16.10;95.50;;;;;;6276576;28;20461;-67
2021/10/08 15:07:26;;;;;;;9.57;7.53;;;16.10;95.20;;;;;;6276158;28;20439;-65
2021/10/08 15:10:30;;;;;;;9.13;8.20;;;16.00;95.30;;;;;;6274124;28;20787;-65
2021/10/08 15:13:34;;;;;;;11.17;8.50;;;16.00;95.40;;;;;;6274857;28;20894;-65
2021/10/08 15:16:37;;;;;;;8.40;7.60;;;15.90;95.50;;;;;;6275940;28;20481;-65
2021/10/08 15:19:41;;;;;;;12.40;9.60;;;15.80;95.70;;;;;;6275745;28;20768;-63
2021/10/08 15:22:44;;;;;;;9.57;7.60;;;15.70;96.10;;;;;;6276220;28;20466;-64
2021/10/08 15:25:47;;;;;;;9.70;8.73;;;15.60;95.80;;;;;;6275485;28;20478;-64
2021/10/08 15:28:52;;;;;;;11.43;9.53;;;15.40;95.90;;;;;;6274998;28;20466;-64
2021/10/08 15:31:55;;;;;;;10.43;9.37;;;15.10;95.90;;;;;;6276425;28;20482;-67
2021/10/08 15:34:59;;;;;;;9.53;8.67;;;15.00;96.30;;;;;;6275087;28;20794;-67
2021/10/08 15:38:02;;;;;;;12.70;7.93;;;15.00;96.80;;;;;;6275576;28;20545;-66
2021/10/08 15:41:11;;;;;;;9.93;8.13;;;15.00;96.70;;;;;;6274495;28;20462;-67
2021/10/08 15:44:15;;;;;;;8.30;7.13;;;14.80;96.40;;;;;;6275318;28;20481;-68
2021/10/08 15:47:19;;;;;;;9.33;7.90;;;14.80;96.50;;;;;;6275883;28;20477;-67
2021/10/08 15:50:23;;;;;;;11.83;8.10;;;14.70;96.50;;;;;;6274803;28;20465;-68
2021/10/08 15:53:26;;;;;;;9.10;8.27;;;14.70;96.70;;;;;;6275374;28;20473;-66